sensor_id;sensor_type;location;lat;lon;timestamp;temperature;humidity
66598;DHT22;57424;53.128;6.406;2023-05-14T00:00:53;21.60;54.20
66598;DHT22;57424;53.128;6.406;2023-05-14T00:03:19;21.60;54.20
66598;DHT22;57424;53.128;6.406;2023-05-14T00:05:45;21.60;54.30
66598;DHT22;57424;53.128;6.406;2023-05-14T00:08:10;21.60;54.30
66598;DHT22;57424;53.128;6.406;2023-05-14T00:10:36;21.50;54.30
66598;DHT22;57424;53.128;6.406;2023-05-14T00:13:01;21.50;54.30
66598;DHT22;57424;53.128;6.406;2023-05-14T00:15:27;21.50;54.30
66598;DHT22;57424;53.128;6.406;2023-05-14T00:17:52;21.50;54.30
66598;DHT22;57424;53.128;6.406;2023-05-14T00:20:18;21.50;54.30
66598;DHT22;57424;53.128;6.406;2023-05-14T00:22:43;21.50;54.40
66598;DHT22;57424;53.128;6.406;2023-05-14T00:25:09;21.40;55.00
66598;DHT22;57424;53.128;6.406;2023-05-14T00:27:35;21.40;54.30
66598;DHT22;57424;53.128;6.406;2023-05-14T00:30:03;21.40;54.40
66598;DHT22;57424;53.128;6.406;2023-05-14T00:32:30;21.40;54.40
66598;DHT22;57424;53.128;6.406;2023-05-14T00:34:56;21.40;54.40
66598;DHT22;57424;53.128;6.406;2023-05-14T00:37:21;21.30;54.40
66598;DHT22;57424;53.128;6.406;2023-05-14T00:39:47;21.40;54.50
66598;DHT22;57424;53.128;6.406;2023-05-14T00:42:12;21.30;54.40
66598;DHT22;57424;53.128;6.406;2023-05-14T00:44:38;21.30;54.50
66598;DHT22;57424;53.128;6.406;2023-05-14T00:47:04;21.30;54.50
66598;DHT22;57424;53.128;6.406;2023-05-14T00:49:30;21.30;54.50
66598;DHT22;57424;53.128;6.406;2023-05-14T00:51:56;21.30;54.60
66598;DHT22;57424;53.128;6.406;2023-05-14T00:54:23;21.20;54.50
66598;DHT22;57424;53.128;6.406;2023-05-14T00:56:49;21.20;54.60
66598;DHT22;57424;53.128;6.406;2023-05-14T00:59:15;21.20;54.60
66598;DHT22;57424;53.128;6.406;2023-05-14T01:01:41;21.20;54.60
66598;DHT22;57424;53.128;6.406;2023-05-14T01:04:08;21.20;54.70
66598;DHT22;57424;53.128;6.406;2023-05-14T01:07:07;21.20;54.70
66598;DHT22;57424;53.128;6.406;2023-05-14T01:09:44;21.10;54.60
66598;DHT22;57424;53.128;6.406;2023-05-14T01:15:05;21.10;54.80
66598;DHT22;57424;53.128;6.406;2023-05-14T01:17:39;21.10;54.70
66598;DHT22;57424;53.128;6.406;2023-05-14T01:20:06;21.00;54.70
66598;DHT22;57424;53.128;6.406;2023-05-14T01:22:32;21.00;54.80
66598;DHT22;57424;53.128;6.406;2023-05-14T01:24:57;21.00;54.80
66598;DHT22;57424;53.128;6.406;2023-05-14T01:30:34;21.00;54.80
66598;DHT22;57424;53.128;6.406;2023-05-14T01:33:05;20.90;54.80
66598;DHT22;57424;53.128;6.406;2023-05-14T01:35:32;20.90;54.80
66598;DHT22;57424;53.128;6.406;2023-05-14T01:38:02;20.90;54.90
66598;DHT22;57424;53.128;6.406;2023-05-14T01:40:30;20.90;54.90
66598;DHT22;57424;53.128;6.406;2023-05-14T01:42:57;20.90;54.90
66598;DHT22;57424;53.128;6.406;2023-05-14T01:45:23;20.90;54.90
66598;DHT22;57424;53.128;6.406;2023-05-14T01:47:49;20.90;54.90
66598;DHT22;57424;53.128;6.406;2023-05-14T01:50:15;20.90;55.00
66598;DHT22;57424;53.128;6.406;2023-05-14T01:52:41;20.80;54.90
66598;DHT22;57424;53.128;6.406;2023-05-14T01:55:06;20.90;55.00
66598;DHT22;57424;53.128;6.406;2023-05-14T01:57:32;20.90;55.00
66598;DHT22;57424;53.128;6.406;2023-05-14T01:59:58;20.80;55.00
66598;DHT22;57424;53.128;6.406;2023-05-14T02:02:24;20.80;55.00
66598;DHT22;57424;53.128;6.406;2023-05-14T02:04:49;20.80;55.00
66598;DHT22;57424;53.128;6.406;2023-05-14T02:07:15;20.80;55.00
66598;DHT22;57424;53.128;6.406;2023-05-14T02:09:40;20.80;55.00
66598;DHT22;57424;53.128;6.406;2023-05-14T02:12:07;20.80;55.00
66598;DHT22;57424;53.128;6.406;2023-05-14T02:14:33;20.70;55.00
66598;DHT22;57424;53.128;6.406;2023-05-14T02:16:58;20.70;55.00
66598;DHT22;57424;53.128;6.406;2023-05-14T02:19:24;20.80;55.10
66598;DHT22;57424;53.128;6.406;2023-05-14T02:21:50;20.70;55.00
66598;DHT22;57424;53.128;6.406;2023-05-14T02:24:15;20.70;55.00
66598;DHT22;57424;53.128;6.406;2023-05-14T02:26:41;20.70;55.00
66598;DHT22;57424;53.128;6.406;2023-05-14T02:29:07;20.70;55.10
66598;DHT22;57424;53.128;6.406;2023-05-14T02:31:33;20.70;55.10
66598;DHT22;57424;53.128;6.406;2023-05-14T02:34:00;20.70;55.10
66598;DHT22;57424;53.128;6.406;2023-05-14T02:36:26;20.70;55.10
66598;DHT22;57424;53.128;6.406;2023-05-14T02:38:51;20.70;55.20
66598;DHT22;57424;53.128;6.406;2023-05-14T02:41:17;20.70;55.10
66598;DHT22;57424;53.128;6.406;2023-05-14T02:43:42;20.60;55.10
66598;DHT22;57424;53.128;6.406;2023-05-14T02:46:08;20.60;55.00
66598;DHT22;57424;53.128;6.406;2023-05-14T02:48:34;20.70;55.10
66598;DHT22;57424;53.128;6.406;2023-05-14T02:50:59;20.70;55.10
66598;DHT22;57424;53.128;6.406;2023-05-14T02:53:25;20.60;55.00
66598;DHT22;57424;53.128;6.406;2023-05-14T02:55:50;20.60;55.10
66598;DHT22;57424;53.128;6.406;2023-05-14T02:58:16;20.60;55.10
66598;DHT22;57424;53.128;6.406;2023-05-14T03:00:42;20.60;55.10
66598;DHT22;57424;53.128;6.406;2023-05-14T03:03:07;20.60;55.10
66598;DHT22;57424;53.128;6.406;2023-05-14T03:05:33;20.60;55.20
66598;DHT22;57424;53.128;6.406;2023-05-14T03:07:59;20.60;55.10
66598;DHT22;57424;53.128;6.406;2023-05-14T03:10:25;20.60;55.10
66598;DHT22;57424;53.128;6.406;2023-05-14T03:12:50;20.60;55.10
66598;DHT22;57424;53.128;6.406;2023-05-14T03:15:16;20.50;55.10
66598;DHT22;57424;53.128;6.406;2023-05-14T03:17:42;20.60;55.10
66598;DHT22;57424;53.128;6.406;2023-05-14T03:20:08;20.50;55.10
66598;DHT22;57424;53.128;6.406;2023-05-14T03:22:33;20.50;55.70
66598;DHT22;57424;53.128;6.406;2023-05-14T03:24:59;20.60;55.10
66598;DHT22;57424;53.128;6.406;2023-05-14T03:27:24;20.50;55.10
66598;DHT22;57424;53.128;6.406;2023-05-14T03:29:50;20.50;55.10
66598;DHT22;57424;53.128;6.406;2023-05-14T03:32:16;20.50;55.10
66598;DHT22;57424;53.128;6.406;2023-05-14T03:34:42;20.50;55.10
66598;DHT22;57424;53.128;6.406;2023-05-14T03:37:09;20.50;55.10
66598;DHT22;57424;53.128;6.406;2023-05-14T03:39:34;20.50;55.10
66598;DHT22;57424;53.128;6.406;2023-05-14T03:42:00;20.50;55.10
66598;DHT22;57424;53.128;6.406;2023-05-14T03:44:26;20.50;55.10
66598;DHT22;57424;53.128;6.406;2023-05-14T03:46:51;20.50;55.10
66598;DHT22;57424;53.128;6.406;2023-05-14T03:49:17;20.50;55.10
66598;DHT22;57424;53.128;6.406;2023-05-14T03:51:42;20.40;55.10
66598;DHT22;57424;53.128;6.406;2023-05-14T03:54:08;20.40;55.10
66598;DHT22;57424;53.128;6.406;2023-05-14T03:56:34;20.40;55.10
66598;DHT22;57424;53.128;6.406;2023-05-14T03:59:00;20.40;55.10
66598;DHT22;57424;53.128;6.406;2023-05-14T04:01:25;20.40;55.10
66598;DHT22;57424;53.128;6.406;2023-05-14T04:03:51;20.40;55.10
66598;DHT22;57424;53.128;6.406;2023-05-14T04:06:16;20.40;55.10
66598;DHT22;57424;53.128;6.406;2023-05-14T04:08:42;20.40;55.10
66598;DHT22;57424;53.128;6.406;2023-05-14T04:11:07;20.40;55.10
66598;DHT22;57424;53.128;6.406;2023-05-14T04:13:33;20.40;55.10
66598;DHT22;57424;53.128;6.406;2023-05-14T04:15:58;20.40;55.10
66598;DHT22;57424;53.128;6.406;2023-05-14T04:18:24;20.40;55.10
66598;DHT22;57424;53.128;6.406;2023-05-14T04:20:50;20.40;55.10
66598;DHT22;57424;53.128;6.406;2023-05-14T04:23:15;20.40;55.20
66598;DHT22;57424;53.128;6.406;2023-05-14T04:25:41;20.30;55.10
66598;DHT22;57424;53.128;6.406;2023-05-14T04:28:06;20.40;55.20
66598;DHT22;57424;53.128;6.406;2023-05-14T04:30:32;20.40;55.20
66598;DHT22;57424;53.128;6.406;2023-05-14T04:32:58;20.30;55.10
66598;DHT22;57424;53.128;6.406;2023-05-14T04:35:23;20.30;55.20
66598;DHT22;57424;53.128;6.406;2023-05-14T04:37:49;20.30;55.10
66598;DHT22;57424;53.128;6.406;2023-05-14T04:40:14;20.30;55.10
66598;DHT22;57424;53.128;6.406;2023-05-14T04:42:43;20.30;55.20
66598;DHT22;57424;53.128;6.406;2023-05-14T04:45:09;20.30;55.20
66598;DHT22;57424;53.128;6.406;2023-05-14T04:47:34;20.30;55.20
66598;DHT22;57424;53.128;6.406;2023-05-14T04:50:00;20.30;55.20
66598;DHT22;57424;53.128;6.406;2023-05-14T04:52:26;20.30;55.30
66598;DHT22;57424;53.128;6.406;2023-05-14T04:54:52;20.30;55.20
66598;DHT22;57424;53.128;6.406;2023-05-14T04:57:17;20.30;55.30
66598;DHT22;57424;53.128;6.406;2023-05-14T04:59:43;20.30;55.30
66598;DHT22;57424;53.128;6.406;2023-05-14T05:02:08;20.30;55.30
66598;DHT22;57424;53.128;6.406;2023-05-14T05:04:34;20.20;55.90
66598;DHT22;57424;53.128;6.406;2023-05-14T05:06:59;20.30;55.30
66598;DHT22;57424;53.128;6.406;2023-05-14T05:09:25;20.30;55.30
66598;DHT22;57424;53.128;6.406;2023-05-14T05:11:50;20.20;55.30
66598;DHT22;57424;53.128;6.406;2023-05-14T05:14:16;20.30;55.30
66598;DHT22;57424;53.128;6.406;2023-05-14T05:16:42;20.20;55.30
66598;DHT22;57424;53.128;6.406;2023-05-14T05:19:07;20.30;55.40
66598;DHT22;57424;53.128;6.406;2023-05-14T05:21:33;20.20;55.30
66598;DHT22;57424;53.128;6.406;2023-05-14T05:23:59;20.20;55.30
66598;DHT22;57424;53.128;6.406;2023-05-14T05:26:25;20.20;55.30
66598;DHT22;57424;53.128;6.406;2023-05-14T05:28:51;20.20;55.30
66598;DHT22;57424;53.128;6.406;2023-05-14T05:31:17;20.20;55.30
66598;DHT22;57424;53.128;6.406;2023-05-14T05:33:43;20.30;55.50
66598;DHT22;57424;53.128;6.406;2023-05-14T05:36:08;20.20;55.40
66598;DHT22;57424;53.128;6.406;2023-05-14T05:38:34;20.20;55.30
66598;DHT22;57424;53.128;6.406;2023-05-14T05:40:59;20.20;55.40
66598;DHT22;57424;53.128;6.406;2023-05-14T05:43:25;20.20;55.40
66598;DHT22;57424;53.128;6.406;2023-05-14T05:45:52;20.20;55.40
66598;DHT22;57424;53.128;6.406;2023-05-14T05:48:18;20.20;55.40
66598;DHT22;57424;53.128;6.406;2023-05-14T05:50:46;20.20;55.40
66598;DHT22;57424;53.128;6.406;2023-05-14T05:53:13;20.20;55.40
66598;DHT22;57424;53.128;6.406;2023-05-14T05:55:40;20.20;55.40
66598;DHT22;57424;53.128;6.406;2023-05-14T05:58:06;20.20;55.50
66598;DHT22;57424;53.128;6.406;2023-05-14T06:00:32;20.20;55.50
66598;DHT22;57424;53.128;6.406;2023-05-14T06:02:57;20.20;55.50
66598;DHT22;57424;53.128;6.406;2023-05-14T06:05:23;20.20;55.50
66598;DHT22;57424;53.128;6.406;2023-05-14T06:07:48;20.20;55.50
66598;DHT22;57424;53.128;6.406;2023-05-14T06:10:14;20.20;55.50
66598;DHT22;57424;53.128;6.406;2023-05-14T06:12:39;20.20;55.50
66598;DHT22;57424;53.128;6.406;2023-05-14T06:15:05;20.20;55.50
66598;DHT22;57424;53.128;6.406;2023-05-14T06:17:31;20.20;55.50
66598;DHT22;57424;53.128;6.406;2023-05-14T06:19:57;20.20;55.50
66598;DHT22;57424;53.128;6.406;2023-05-14T06:22:22;20.20;55.50
66598;DHT22;57424;53.128;6.406;2023-05-14T06:24:48;20.20;55.50
66598;DHT22;57424;53.128;6.406;2023-05-14T06:27:13;20.20;55.50
66598;DHT22;57424;53.128;6.406;2023-05-14T06:29:39;20.20;55.50
66598;DHT22;57424;53.128;6.406;2023-05-14T06:32:05;20.20;55.60
66598;DHT22;57424;53.128;6.406;2023-05-14T06:34:30;20.20;55.50
66598;DHT22;57424;53.128;6.406;2023-05-14T06:36:56;20.20;55.50
66598;DHT22;57424;53.128;6.406;2023-05-14T06:39:22;20.20;55.50
66598;DHT22;57424;53.128;6.406;2023-05-14T06:41:48;20.20;55.50
66598;DHT22;57424;53.128;6.406;2023-05-14T06:44:15;20.20;55.50
66598;DHT22;57424;53.128;6.406;2023-05-14T06:46:41;20.20;55.50
66598;DHT22;57424;53.128;6.406;2023-05-14T06:49:07;20.20;55.60
66598;DHT22;57424;53.128;6.406;2023-05-14T06:51:32;20.20;55.50
66598;DHT22;57424;53.128;6.406;2023-05-14T06:53:58;20.20;55.50
66598;DHT22;57424;53.128;6.406;2023-05-14T06:56:23;20.20;55.50
66598;DHT22;57424;53.128;6.406;2023-05-14T06:58:49;20.20;55.50
66598;DHT22;57424;53.128;6.406;2023-05-14T07:01:15;20.20;55.60
66598;DHT22;57424;53.128;6.406;2023-05-14T07:03:41;20.20;55.80
66598;DHT22;57424;53.128;6.406;2023-05-14T07:06:06;20.20;56.00
66598;DHT22;57424;53.128;6.406;2023-05-14T07:08:32;20.20;56.00
66598;DHT22;57424;53.128;6.406;2023-05-14T07:10:57;20.30;56.20
66598;DHT22;57424;53.128;6.406;2023-05-14T07:13:24;20.20;56.20
66598;DHT22;57424;53.128;6.406;2023-05-14T07:15:51;20.30;56.30
66598;DHT22;57424;53.128;6.406;2023-05-14T07:18:17;20.30;56.20
66598;DHT22;57424;53.128;6.406;2023-05-14T07:20:42;20.30;56.80
66598;DHT22;57424;53.128;6.406;2023-05-14T07:23:08;20.30;56.10
66598;DHT22;57424;53.128;6.406;2023-05-14T07:25:34;20.30;56.10
66598;DHT22;57424;53.128;6.406;2023-05-14T07:27:59;20.30;56.00
66598;DHT22;57424;53.128;6.406;2023-05-14T07:30:25;20.30;56.00
66598;DHT22;57424;53.128;6.406;2023-05-14T07:32:50;20.30;56.00
66598;DHT22;57424;53.128;6.406;2023-05-14T07:35:16;20.40;56.10
66598;DHT22;57424;53.128;6.406;2023-05-14T07:37:42;20.40;56.10
66598;DHT22;57424;53.128;6.406;2023-05-14T07:40:08;20.30;56.10
66598;DHT22;57424;53.128;6.406;2023-05-14T07:42:34;20.40;56.10
66598;DHT22;57424;53.128;6.406;2023-05-14T07:44:59;20.40;56.20
66598;DHT22;57424;53.128;6.406;2023-05-14T07:47:25;20.40;56.10
66598;DHT22;57424;53.128;6.406;2023-05-14T07:49:55;20.40;56.20
66598;DHT22;57424;53.128;6.406;2023-05-14T07:52:21;20.40;56.20
66598;DHT22;57424;53.128;6.406;2023-05-14T07:54:46;20.40;56.20
66598;DHT22;57424;53.128;6.406;2023-05-14T07:57:12;20.40;56.20
66598;DHT22;57424;53.128;6.406;2023-05-14T07:59:38;20.40;56.30
66598;DHT22;57424;53.128;6.406;2023-05-14T08:02:03;20.50;56.30
66598;DHT22;57424;53.128;6.406;2023-05-14T08:04:29;20.50;56.30
66598;DHT22;57424;53.128;6.406;2023-05-14T08:06:54;20.50;56.40
66598;DHT22;57424;53.128;6.406;2023-05-14T08:09:22;20.60;56.40
66598;DHT22;57424;53.128;6.406;2023-05-14T08:11:48;20.50;56.80
66598;DHT22;57424;53.128;6.406;2023-05-14T08:14:13;20.60;56.40
66598;DHT22;57424;53.128;6.406;2023-05-14T08:16:39;20.60;56.40
66598;DHT22;57424;53.128;6.406;2023-05-14T08:19:05;20.60;56.50
66598;DHT22;57424;53.128;6.406;2023-05-14T08:21:30;20.60;56.40
66598;DHT22;57424;53.128;6.406;2023-05-14T08:23:57;20.60;56.50
66598;DHT22;57424;53.128;6.406;2023-05-14T08:26:22;20.70;56.50
66598;DHT22;57424;53.128;6.406;2023-05-14T08:28:48;20.60;56.40
66598;DHT22;57424;53.128;6.406;2023-05-14T08:31:13;20.70;56.50
66598;DHT22;57424;53.128;6.406;2023-05-14T08:33:39;20.70;56.50
66598;DHT22;57424;53.128;6.406;2023-05-14T08:36:05;20.70;56.50
66598;DHT22;57424;53.128;6.406;2023-05-14T08:38:31;20.70;56.50
66598;DHT22;57424;53.128;6.406;2023-05-14T08:40:57;20.70;56.50
66598;DHT22;57424;53.128;6.406;2023-05-14T08:44:23;20.70;56.40
66598;DHT22;57424;53.128;6.406;2023-05-14T08:46:23;20.70;56.50
66598;DHT22;57424;53.128;6.406;2023-05-14T08:51:36;20.80;56.50
66598;DHT22;57424;53.128;6.406;2023-05-14T08:54:02;20.80;56.50
66598;DHT22;57424;53.128;6.406;2023-05-14T08:56:31;20.80;56.50
66598;DHT22;57424;53.128;6.406;2023-05-14T08:58:57;20.80;56.50
66598;DHT22;57424;53.128;6.406;2023-05-14T09:01:22;20.80;56.50
66598;DHT22;57424;53.128;6.406;2023-05-14T09:03:49;20.80;56.50
66598;DHT22;57424;53.128;6.406;2023-05-14T09:06:16;20.80;56.50
66598;DHT22;57424;53.128;6.406;2023-05-14T09:08:41;20.80;56.50
66598;DHT22;57424;53.128;6.406;2023-05-14T09:11:07;20.90;56.60
66598;DHT22;57424;53.128;6.406;2023-05-14T09:13:37;20.90;56.60
66598;DHT22;57424;53.128;6.406;2023-05-14T09:16:04;20.90;56.70
66598;DHT22;57424;53.128;6.406;2023-05-14T09:18:30;20.90;56.70
66598;DHT22;57424;53.128;6.406;2023-05-14T09:20:56;20.90;56.80
66598;DHT22;57424;53.128;6.406;2023-05-14T09:23:25;20.90;56.90
66598;DHT22;57424;53.128;6.406;2023-05-14T09:25:50;20.90;57.00
66598;DHT22;57424;53.128;6.406;2023-05-14T09:28:16;21.00;57.00
66598;DHT22;57424;53.128;6.406;2023-05-14T09:30:49;21.00;57.00
66598;DHT22;57424;53.128;6.406;2023-05-14T09:33:28;21.00;56.90
66598;DHT22;57424;53.128;6.406;2023-05-14T09:35:58;21.00;56.90
66598;DHT22;57424;53.128;6.406;2023-05-14T09:38:31;21.00;56.80
66598;DHT22;57424;53.128;6.406;2023-05-14T09:41:00;21.00;56.80
66598;DHT22;57424;53.128;6.406;2023-05-14T09:43:26;21.00;56.80
66598;DHT22;57424;53.128;6.406;2023-05-14T09:45:52;21.00;56.80
66598;DHT22;57424;53.128;6.406;2023-05-14T09:48:18;21.00;56.80
66598;DHT22;57424;53.128;6.406;2023-05-14T09:50:46;21.00;56.80
66598;DHT22;57424;53.128;6.406;2023-05-14T09:53:13;21.00;56.80
66598;DHT22;57424;53.128;6.406;2023-05-14T10:16:27;21.00;56.20
66598;DHT22;57424;53.128;6.406;2023-05-14T10:18:57;21.40;55.80
66598;DHT22;57424;53.128;6.406;2023-05-14T10:21:25;21.30;56.00
66598;DHT22;57424;53.128;6.406;2023-05-14T10:23:53;21.30;56.80
66598;DHT22;57424;53.128;6.406;2023-05-14T10:26:19;21.30;56.20
66598;DHT22;57424;53.128;6.406;2023-05-14T10:28:45;21.30;56.20
66598;DHT22;57424;53.128;6.406;2023-05-14T10:31:11;21.20;56.10
66598;DHT22;57424;53.128;6.406;2023-05-14T10:33:46;21.20;56.10
66598;DHT22;57424;53.128;6.406;2023-05-14T10:36:14;21.20;56.20
66598;DHT22;57424;53.128;6.406;2023-05-14T10:38:40;21.20;56.20
66598;DHT22;57424;53.128;6.406;2023-05-14T10:41:13;21.20;56.20
66598;DHT22;57424;53.128;6.406;2023-05-14T10:43:42;21.20;56.20
66598;DHT22;57424;53.128;6.406;2023-05-14T10:46:10;21.20;56.20
66598;DHT22;57424;53.128;6.406;2023-05-14T10:48:36;21.10;56.20
66598;DHT22;57424;53.128;6.406;2023-05-14T10:51:06;21.20;56.20
66598;DHT22;57424;53.128;6.406;2023-05-14T10:53:37;21.20;56.20
66598;DHT22;57424;53.128;6.406;2023-05-14T10:56:12;21.20;56.90
66598;DHT22;57424;53.128;6.406;2023-05-14T10:58:39;21.20;56.20
66598;DHT22;57424;53.128;6.406;2023-05-14T11:01:06;21.10;56.20
66598;DHT22;57424;53.128;6.406;2023-05-14T11:03:39;21.10;56.20
66598;DHT22;57424;53.128;6.406;2023-05-14T11:06:06;21.10;56.20
66598;DHT22;57424;53.128;6.406;2023-05-14T11:08:32;21.10;56.20
66598;DHT22;57424;53.128;6.406;2023-05-14T11:12:45;21.20;55.70
66598;DHT22;57424;53.128;6.406;2023-05-14T11:15:13;21.10;56.30
66598;DHT22;57424;53.128;6.406;2023-05-14T11:17:42;21.10;56.20
66598;DHT22;57424;53.128;6.406;2023-05-14T11:20:08;21.10;55.90
66598;DHT22;57424;53.128;6.406;2023-05-14T11:22:35;21.10;55.70
66598;DHT22;57424;53.128;6.406;2023-05-14T11:25:01;21.10;55.70
66598;DHT22;57424;53.128;6.406;2023-05-14T11:27:27;21.10;55.80
66598;DHT22;57424;53.128;6.406;2023-05-14T11:29:52;21.10;55.90
66598;DHT22;57424;53.128;6.406;2023-05-14T11:32:20;21.10;55.90
66598;DHT22;57424;53.128;6.406;2023-05-14T11:34:46;21.10;55.90
66598;DHT22;57424;53.128;6.406;2023-05-14T11:37:13;21.10;55.90
66598;DHT22;57424;53.128;6.406;2023-05-14T11:39:44;21.10;55.90
66598;DHT22;57424;53.128;6.406;2023-05-14T11:42:11;21.10;55.90
66598;DHT22;57424;53.128;6.406;2023-05-14T11:44:39;21.10;55.90
66598;DHT22;57424;53.128;6.406;2023-05-14T11:47:05;21.20;55.90
66598;DHT22;57424;53.128;6.406;2023-05-14T11:49:31;21.20;55.90
66598;DHT22;57424;53.128;6.406;2023-05-14T11:54:28;21.10;55.70
66598;DHT22;57424;53.128;6.406;2023-05-14T11:56:54;21.20;55.80
66598;DHT22;57424;53.128;6.406;2023-05-14T11:59:23;21.20;55.80
66598;DHT22;57424;53.128;6.406;2023-05-14T12:01:49;21.10;55.70
66598;DHT22;57424;53.128;6.406;2023-05-14T12:04:17;21.20;55.80
66598;DHT22;57424;53.128;6.406;2023-05-14T12:06:49;21.20;55.70
66598;DHT22;57424;53.128;6.406;2023-05-14T12:09:19;21.20;55.70
66598;DHT22;57424;53.128;6.406;2023-05-14T12:11:46;21.20;55.70
66598;DHT22;57424;53.128;6.406;2023-05-14T12:14:18;21.10;55.60
66598;DHT22;57424;53.128;6.406;2023-05-14T12:16:44;21.20;55.60
66598;DHT22;57424;53.128;6.406;2023-05-14T12:19:13;21.10;55.50
66598;DHT22;57424;53.128;6.406;2023-05-14T12:21:39;21.20;55.50
66598;DHT22;57424;53.128;6.406;2023-05-14T12:24:09;21.20;55.50
66598;DHT22;57424;53.128;6.406;2023-05-14T12:26:36;21.20;55.50
66598;DHT22;57424;53.128;6.406;2023-05-14T12:29:03;21.20;55.40
66598;DHT22;57424;53.128;6.406;2023-05-14T12:31:32;21.10;55.40
66598;DHT22;57424;53.128;6.406;2023-05-14T12:33:58;21.20;55.40
66598;DHT22;57424;53.128;6.406;2023-05-14T12:36:24;21.20;55.50
66598;DHT22;57424;53.128;6.406;2023-05-14T12:38:57;21.10;56.10
66598;DHT22;57424;53.128;6.406;2023-05-14T12:41:23;21.20;55.40
66598;DHT22;57424;53.128;6.406;2023-05-14T12:43:48;21.20;55.40
66598;DHT22;57424;53.128;6.406;2023-05-14T12:46:14;21.20;55.30
66598;DHT22;57424;53.128;6.406;2023-05-14T12:48:40;21.20;55.30
66598;DHT22;57424;53.128;6.406;2023-05-14T12:51:06;21.20;55.30
66598;DHT22;57424;53.128;6.406;2023-05-14T12:53:32;21.20;55.30
66598;DHT22;57424;53.128;6.406;2023-05-14T12:55:58;21.20;55.30
66598;DHT22;57424;53.128;6.406;2023-05-14T12:58:23;21.20;55.20
66598;DHT22;57424;53.128;6.406;2023-05-14T13:00:49;21.20;55.20
66598;DHT22;57424;53.128;6.406;2023-05-14T13:03:14;21.20;55.20
66598;DHT22;57424;53.128;6.406;2023-05-14T13:05:40;21.20;55.30
66598;DHT22;57424;53.128;6.406;2023-05-14T13:08:08;21.20;55.30
66598;DHT22;57424;53.128;6.406;2023-05-14T13:10:33;21.20;55.50
66598;DHT22;57424;53.128;6.406;2023-05-14T13:12:59;21.20;55.50
66598;DHT22;57424;53.128;6.406;2023-05-14T13:15:26;21.20;55.60
66598;DHT22;57424;53.128;6.406;2023-05-14T13:17:51;21.20;55.80
66598;DHT22;57424;53.128;6.406;2023-05-14T13:20:17;21.20;55.90
66598;DHT22;57424;53.128;6.406;2023-05-14T13:22:43;21.20;56.00
66598;DHT22;57424;53.128;6.406;2023-05-14T13:25:08;21.20;56.00
66598;DHT22;57424;53.128;6.406;2023-05-14T13:27:34;21.20;56.00
66598;DHT22;57424;53.128;6.406;2023-05-14T13:30:03;21.20;56.00
66598;DHT22;57424;53.128;6.406;2023-05-14T13:32:28;21.20;56.00
66598;DHT22;57424;53.128;6.406;2023-05-14T13:34:55;21.20;55.90
66598;DHT22;57424;53.128;6.406;2023-05-14T13:37:20;21.20;55.90
66598;DHT22;57424;53.128;6.406;2023-05-14T13:39:46;21.20;55.90
66598;DHT22;57424;53.128;6.406;2023-05-14T13:42:11;21.20;55.90
66598;DHT22;57424;53.128;6.406;2023-05-14T13:44:37;21.20;55.90
66598;DHT22;57424;53.128;6.406;2023-05-14T13:47:03;21.20;55.80
66598;DHT22;57424;53.128;6.406;2023-05-14T13:49:28;21.20;55.80
66598;DHT22;57424;53.128;6.406;2023-05-14T13:51:54;21.20;56.00
66598;DHT22;57424;53.128;6.406;2023-05-14T13:54:20;21.30;56.40
66598;DHT22;57424;53.128;6.406;2023-05-14T13:56:46;21.20;55.70
66598;DHT22;57424;53.128;6.406;2023-05-14T13:59:11;21.20;55.70
66598;DHT22;57424;53.128;6.406;2023-05-14T14:01:37;21.30;55.70
66598;DHT22;57424;53.128;6.406;2023-05-14T14:04:02;21.30;55.60
66598;DHT22;57424;53.128;6.406;2023-05-14T14:06:30;21.30;55.50
66598;DHT22;57424;53.128;6.406;2023-05-14T14:08:56;21.20;55.40
66598;DHT22;57424;53.128;6.406;2023-05-14T14:11:21;21.30;55.40
66598;DHT22;57424;53.128;6.406;2023-05-14T14:13:47;21.30;55.30
66598;DHT22;57424;53.128;6.406;2023-05-14T14:16:13;21.20;55.30
66598;DHT22;57424;53.128;6.406;2023-05-14T14:18:39;21.30;55.20
66598;DHT22;57424;53.128;6.406;2023-05-14T14:21:05;21.30;55.10
66598;DHT22;57424;53.128;6.406;2023-05-14T14:23:31;21.30;55.10
66598;DHT22;57424;53.128;6.406;2023-05-14T14:25:56;21.30;55.00
66598;DHT22;57424;53.128;6.406;2023-05-14T14:28:22;21.30;54.90
66598;DHT22;57424;53.128;6.406;2023-05-14T14:30:48;21.30;54.80
66598;DHT22;57424;53.128;6.406;2023-05-14T14:33:14;21.30;54.80
66598;DHT22;57424;53.128;6.406;2023-05-14T14:35:40;21.30;54.70
66598;DHT22;57424;53.128;6.406;2023-05-14T14:38:05;21.30;54.60
66598;DHT22;57424;53.128;6.406;2023-05-14T14:40:32;21.30;54.50
66598;DHT22;57424;53.128;6.406;2023-05-14T14:42:58;21.30;54.40
66598;DHT22;57424;53.128;6.406;2023-05-14T14:45:23;21.30;54.40
66598;DHT22;57424;53.128;6.406;2023-05-14T14:47:49;21.30;54.40
66598;DHT22;57424;53.128;6.406;2023-05-14T14:50:15;21.30;54.30
66598;DHT22;57424;53.128;6.406;2023-05-14T14:52:41;21.30;54.40
66598;DHT22;57424;53.128;6.406;2023-05-14T14:55:09;21.30;54.50
66598;DHT22;57424;53.128;6.406;2023-05-14T14:57:35;21.30;54.50
66598;DHT22;57424;53.128;6.406;2023-05-14T15:00:01;21.30;54.60
66598;DHT22;57424;53.128;6.406;2023-05-14T15:02:26;21.30;54.70
66598;DHT22;57424;53.128;6.406;2023-05-14T15:04:53;21.30;54.80
66598;DHT22;57424;53.128;6.406;2023-05-14T15:07:19;21.30;54.90
66598;DHT22;57424;53.128;6.406;2023-05-14T15:09:46;21.30;55.00
66598;DHT22;57424;53.128;6.406;2023-05-14T15:12:12;21.30;55.10
66598;DHT22;57424;53.128;6.406;2023-05-14T15:14:38;21.30;55.20
66598;DHT22;57424;53.128;6.406;2023-05-14T15:17:04;21.30;55.30
66598;DHT22;57424;53.128;6.406;2023-05-14T15:19:29;21.30;55.40
66598;DHT22;57424;53.128;6.406;2023-05-14T15:21:56;21.30;55.60
66598;DHT22;57424;53.128;6.406;2023-05-14T15:24:22;21.30;55.70
66598;DHT22;57424;53.128;6.406;2023-05-14T15:26:49;21.30;55.90
66598;DHT22;57424;53.128;6.406;2023-05-14T15:29:15;21.30;56.10
66598;DHT22;57424;53.128;6.406;2023-05-14T15:31:40;21.30;56.20
66598;DHT22;57424;53.128;6.406;2023-05-14T15:34:06;21.30;56.40
66598;DHT22;57424;53.128;6.406;2023-05-14T15:36:31;21.30;56.60
66598;DHT22;57424;53.128;6.406;2023-05-14T15:38:58;21.30;56.80
66598;DHT22;57424;53.128;6.406;2023-05-14T15:41:24;21.30;56.90
66598;DHT22;57424;53.128;6.406;2023-05-14T15:43:50;21.30;57.10
66598;DHT22;57424;53.128;6.406;2023-05-14T15:46:16;21.40;57.40
66598;DHT22;57424;53.128;6.406;2023-05-14T15:48:41;21.40;57.50
66598;DHT22;57424;53.128;6.406;2023-05-14T15:51:07;21.30;57.70
66598;DHT22;57424;53.128;6.406;2023-05-14T15:53:33;21.40;58.00
66598;DHT22;57424;53.128;6.406;2023-05-14T15:55:58;21.40;58.30
66598;DHT22;57424;53.128;6.406;2023-05-14T15:58:24;21.40;58.40